createdAt,value
2016-07-14T00:00:45.823Z,1007.13
2016-07-14T00:01:45.802Z,1007.14
2016-07-14T00:02:45.781Z,1007.15
2016-07-14T00:03:45.759Z,1007.13
2016-07-14T00:04:45.737Z,1007.13
2016-07-14T00:05:45.715Z,1007.18
2016-07-14T00:06:45.693Z,1007.17
2016-07-14T00:07:45.672Z,1007.25
2016-07-14T00:08:45.649Z,1007.24
2016-07-14T00:09:45.627Z,1007.24
2016-07-14T00:10:45.604Z,1007.27
2016-07-14T00:11:45.583Z,1007.32
2016-07-14T00:12:45.562Z,1007.26
2016-07-14T00:13:45.538Z,1007.26
2016-07-14T00:14:45.518Z,1007.28
2016-07-14T00:15:45.497Z,1007.26
2016-07-14T00:16:45.473Z,1007.24
2016-07-14T00:17:45.452Z,1007.25
2016-07-14T00:18:45.430Z,1007.25
2016-07-14T00:19:45.407Z,1007.3
2016-07-14T00:20:45.384Z,1007.29
2016-07-14T00:21:45.364Z,1007.23
2016-07-14T00:22:45.352Z,1007.31
2016-07-14T00:23:45.319Z,1007.31
2016-07-14T00:24:45.297Z,1007.29
2016-07-14T00:25:45.274Z,1007.33
2016-07-14T00:26:45.253Z,1007.34
2016-07-14T00:27:45.230Z,1007.27
2016-07-14T00:28:45.207Z,1007.28
2016-07-14T00:29:45.186Z,1007.29
2016-07-14T00:30:45.164Z,1007.27
2016-07-14T00:31:45.143Z,1007.28
2016-07-14T00:32:45.120Z,1007.29
2016-07-14T00:33:45.097Z,1007.3
2016-07-14T00:34:45.077Z,1007.31
2016-07-14T00:35:45.054Z,1007.27
2016-07-14T00:36:45.030Z,1007.27
2016-07-14T00:37:45.010Z,1007.27
2016-07-14T00:38:44.986Z,1007.23
2016-07-14T00:39:44.965Z,1007.22
2016-07-14T00:40:44.940Z,1007.27
2016-07-14T00:41:44.919Z,1007.22
2016-07-14T00:42:44.898Z,1007.26
2016-07-14T00:43:44.874Z,1007.22
2016-07-14T00:44:44.852Z,1007.28
2016-07-14T00:45:44.831Z,1007.23
2016-07-14T00:46:44.809Z,1007.23
2016-07-14T00:47:44.786Z,1007.21
2016-07-14T00:48:44.764Z,1007.16
2016-07-14T00:49:44.742Z,1007.18
2016-07-14T00:50:44.719Z,1007.19
2016-07-14T00:51:44.698Z,1007.15
2016-07-14T00:52:44.676Z,1007.18
2016-07-14T00:53:44.650Z,1007.17
2016-07-14T00:54:44.630Z,1007.16
2016-07-14T00:55:44.608Z,1007.16
2016-07-14T00:56:44.585Z,1007.18
2016-07-14T00:57:44.563Z,1007.17
2016-07-14T00:58:44.540Z,1007.12
2016-07-14T00:59:44.517Z,1007.14
2016-07-14T01:00:44.493Z,1007.13
2016-07-14T01:01:44.471Z,1007.15
2016-07-14T01:02:44.449Z,1007.15
2016-07-14T01:03:44.426Z,1007.16
2016-07-14T01:04:44.405Z,1007.17
2016-07-14T01:05:44.381Z,1007.17
2016-07-14T01:06:44.359Z,1007.22
2016-07-14T01:07:44.337Z,1007.18
2016-07-14T01:08:44.315Z,1007.15
2016-07-14T01:09:44.292Z,1007.16
2016-07-14T01:10:44.269Z,1007.14
2016-07-14T01:11:44.246Z,1007.12
2016-07-14T01:12:44.225Z,1007.13
2016-07-14T01:13:44.201Z,1007.09
2016-07-14T01:14:44.178Z,1007.13
2016-07-14T01:15:44.155Z,1007.07
2016-07-14T01:16:44.133Z,1007.13
2016-07-14T01:17:44.109Z,1007.1
2016-07-14T01:18:44.088Z,1007.16
2016-07-14T01:19:44.065Z,1007.15
2016-07-14T01:20:44.042Z,1007.15
2016-07-14T01:21:44.021Z,1007.15
2016-07-14T01:22:43.997Z,1007.17
2016-07-14T01:23:43.974Z,1007.18
2016-07-14T01:24:43.951Z,1007.19
2016-07-14T01:25:43.929Z,1007.16
2016-07-14T01:26:43.906Z,1007.17
2016-07-14T01:27:43.883Z,1007.19
2016-07-14T01:28:43.861Z,1007.13
2016-07-14T01:29:43.836Z,1007.17
2016-07-14T01:30:43.813Z,1007.17
2016-07-14T01:31:43.792Z,1007.17
2016-07-14T01:32:43.768Z,1007.13
2016-07-14T01:33:43.745Z,1007.18
2016-07-14T01:34:43.721Z,1007.16
2016-07-14T01:35:43.700Z,1007.13
2016-07-14T01:36:43.676Z,1007.17
2016-07-14T01:37:43.653Z,1007.12
2016-07-14T01:38:43.630Z,1007.16
2016-07-14T01:39:43.608Z,1007.15
2016-07-14T01:40:43.583Z,1007.16
2016-07-14T01:41:43.561Z,1007.19
2016-07-14T01:42:43.538Z,1007.16
2016-07-14T01:43:43.516Z,1007.2
2016-07-14T01:44:43.493Z,1007.17
2016-07-14T01:45:43.470Z,1007.13
2016-07-14T01:46:43.447Z,1007.14
2016-07-14T01:47:43.424Z,1007.15
2016-07-14T01:48:43.400Z,1007.13
2016-07-14T01:49:43.377Z,1007.11
2016-07-14T01:50:43.355Z,1007.17
2016-07-14T01:51:43.331Z,1007.16
2016-07-14T01:52:43.308Z,1007.17
2016-07-14T01:53:43.287Z,1007.22
2016-07-14T01:54:43.262Z,1007.19
2016-07-14T01:55:43.239Z,1007.22
2016-07-14T01:56:43.217Z,1007.21
2016-07-14T01:57:43.192Z,1007.21
2016-07-14T01:58:43.170Z,1007.25
2016-07-14T01:59:43.146Z,1007.22
2016-07-14T02:00:43.124Z,1007.26
2016-07-14T02:01:43.101Z,1007.17
2016-07-14T02:02:43.076Z,1007.18
2016-07-14T02:03:43.053Z,1007.22
2016-07-14T02:04:43.030Z,1007.23
2016-07-14T02:05:43.007Z,1007.24
2016-07-14T02:06:42.983Z,1007.21
2016-07-14T02:07:42.960Z,1007.22
2016-07-14T02:08:42.939Z,1007.23
2016-07-14T02:09:42.915Z,1007.27
2016-07-14T02:10:42.891Z,1007.27
2016-07-14T02:11:42.869Z,1007.26
2016-07-14T02:12:42.845Z,1007.22
2016-07-14T02:13:42.822Z,1007.21
2016-07-14T02:14:42.799Z,1007.19
2016-07-14T02:15:42.775Z,1007.24
2016-07-14T02:16:42.753Z,1007.24
2016-07-14T02:17:42.728Z,1007.26
2016-07-14T02:18:42.706Z,1007.22
2016-07-14T02:19:42.683Z,1007.21
2016-07-14T02:20:42.658Z,1007.17
2016-07-14T02:21:42.640Z,1007.16
2016-07-14T02:22:42.612Z,1007.17
2016-07-14T02:23:42.591Z,1007.17
2016-07-14T02:24:42.566Z,1007.17
2016-07-14T02:25:42.542Z,1007.15
2016-07-14T02:26:42.519Z,1007.17
2016-07-14T02:27:42.496Z,1007.13
2016-07-14T02:28:42.472Z,1007.15
2016-07-14T02:29:42.448Z,1007.16
2016-07-14T02:30:42.427Z,1007.17
2016-07-14T02:31:42.403Z,1007.2
2016-07-14T02:32:42.379Z,1007.16
2016-07-14T02:33:42.356Z,1007.18
2016-07-14T02:34:42.333Z,1007.18
2016-07-14T02:35:42.309Z,1007.16
2016-07-14T02:36:42.284Z,1007.17
2016-07-14T02:37:42.262Z,1007.18
2016-07-14T02:38:42.240Z,1007.17
2016-07-14T02:39:42.216Z,1007.17
2016-07-14T02:40:42.192Z,1007.14
2016-07-14T02:41:42.169Z,1007.18
2016-07-14T02:42:42.146Z,1007.18
2016-07-14T02:43:42.121Z,1007.19
2016-07-14T02:44:42.098Z,1007.19
2016-07-14T02:45:42.076Z,1007.22
2016-07-14T02:46:42.051Z,1007.23
2016-07-14T02:47:42.028Z,1007.26
2016-07-14T02:48:42.006Z,1007.26
2016-07-14T02:49:41.991Z,1007.29
2016-07-14T02:50:41.957Z,1007.23
2016-07-14T02:51:41.934Z,1007.26
2016-07-14T02:52:41.912Z,1007.2
2016-07-14T02:53:41.887Z,1007.26
2016-07-14T02:54:41.865Z,1007.24
2016-07-14T02:55:41.841Z,1007.24
2016-07-14T02:56:41.818Z,1007.23
2016-07-14T02:57:41.795Z,1007.23
2016-07-14T02:58:41.770Z,1007.23
2016-07-14T02:59:41.747Z,1007.22
2016-07-14T03:00:41.725Z,1007.27
2016-07-14T03:01:41.701Z,1007.29
2016-07-14T03:02:41.678Z,1007.3
2016-07-14T03:03:41.654Z,1007.31
2016-07-14T03:04:41.629Z,1007.32
2016-07-14T03:05:41.606Z,1007.29
2016-07-14T03:06:41.584Z,1007.3
2016-07-14T03:07:41.560Z,1007.26
2016-07-14T03:08:41.535Z,1007.24
2016-07-14T03:09:41.512Z,1007.27
2016-07-14T03:10:41.490Z,1007.27
2016-07-14T03:11:41.475Z,1007.24
2016-07-14T03:12:41.440Z,1007.26
2016-07-14T03:13:41.418Z,1007.22
2016-07-14T03:14:41.394Z,1007.26
2016-07-14T03:15:41.371Z,1007.23
2016-07-14T03:16:41.347Z,1007.27
2016-07-14T03:17:41.323Z,1007.25
2016-07-14T03:18:41.301Z,1007.26
2016-07-14T03:19:41.275Z,1007.3
2016-07-14T03:20:41.254Z,1007.29
2016-07-14T03:21:41.229Z,1007.28
2016-07-14T03:22:41.205Z,1007.31
2016-07-14T03:23:41.182Z,1007.27
2016-07-14T03:24:41.158Z,1007.26
2016-07-14T03:25:41.135Z,1007.28
2016-07-14T03:26:41.114Z,1007.27
2016-07-14T03:27:41.087Z,1007.28
2016-07-14T03:28:41.065Z,1007.3
2016-07-14T03:29:41.041Z,1007.29
2016-07-14T03:30:41.017Z,1007.24
2016-07-14T03:31:40.992Z,1007.28
2016-07-14T03:32:40.969Z,1007.32
2016-07-14T03:33:40.946Z,1007.32
2016-07-14T03:34:40.921Z,1007.35
2016-07-14T03:35:40.905Z,1007.32
2016-07-14T03:36:40.875Z,1007.34
2016-07-14T03:37:40.850Z,1007.3
2016-07-14T03:38:40.827Z,1007.38
2016-07-14T03:39:40.804Z,1007.33
2016-07-14T03:40:40.780Z,1007.3
2016-07-14T03:41:40.756Z,1007.37
2016-07-14T03:42:40.734Z,1007.35
2016-07-14T03:43:40.709Z,1007.34
2016-07-14T03:44:40.686Z,1007.4
2016-07-14T03:45:40.662Z,1007.37
2016-07-14T03:46:40.638Z,1007.35
2016-07-14T03:47:40.615Z,1007.34
2016-07-14T03:48:40.591Z,1007.34
2016-07-14T03:49:40.567Z,1007.38
2016-07-14T03:50:40.543Z,1007.43
2016-07-14T03:51:40.520Z,1007.41
2016-07-14T03:52:40.495Z,1007.42
2016-07-14T03:53:40.474Z,1007.41
2016-07-14T03:54:40.449Z,1007.42
2016-07-14T03:55:40.430Z,1007.5
2016-07-14T03:56:40.402Z,1007.42
2016-07-14T03:57:40.377Z,1007.44
2016-07-14T03:58:40.353Z,1007.4
2016-07-14T03:59:40.329Z,1007.39
2016-07-14T04:00:40.307Z,1007.39
2016-07-14T04:01:40.283Z,1007.4
2016-07-14T04:02:40.260Z,1007.4
2016-07-14T04:03:40.235Z,1007.38
2016-07-14T04:04:40.212Z,1007.39
2016-07-14T04:05:40.190Z,1007.39
2016-07-14T04:06:40.165Z,1007.42
2016-07-14T04:07:40.142Z,1007.4
2016-07-14T04:08:40.118Z,1007.42
2016-07-14T04:09:40.094Z,1007.42
2016-07-14T04:10:40.072Z,1007.45
2016-07-14T04:11:40.046Z,1007.45
2016-07-14T04:12:40.025Z,1007.47
2016-07-14T04:13:40.000Z,1007.46
2016-07-14T04:14:39.974Z,1007.52
2016-07-14T04:15:39.952Z,1007.56
2016-07-14T04:16:39.931Z,1007.56
2016-07-14T04:17:39.906Z,1007.53
2016-07-14T04:18:39.885Z,1007.52
2016-07-14T04:19:39.859Z,1007.54
2016-07-14T04:20:39.838Z,1007.56
2016-07-14T04:21:39.814Z,1007.54
2016-07-14T04:22:39.789Z,1007.53
2016-07-14T04:23:39.767Z,1007.6
2016-07-14T04:24:39.742Z,1007.64
2016-07-14T04:25:39.720Z,1007.61
2016-07-14T04:26:39.696Z,1007.62
2016-07-14T04:27:39.673Z,1007.61
2016-07-14T04:28:39.649Z,1007.63
2016-07-14T04:29:39.625Z,1007.59
2016-07-14T04:30:39.604Z,1007.56
2016-07-14T04:31:39.579Z,1007.56
2016-07-14T04:32:39.556Z,1007.55
2016-07-14T04:33:39.534Z,1007.57
2016-07-14T04:34:39.600Z,1007.57
2016-07-14T04:35:39.488Z,1007.58
2016-07-14T04:36:39.464Z,1007.57
2016-07-14T04:37:39.440Z,1007.56
2016-07-14T04:38:39.418Z,1007.58
2016-07-14T04:39:39.393Z,1007.59
2016-07-14T04:40:39.371Z,1007.62
2016-07-14T04:41:39.349Z,1007.63
2016-07-14T04:42:39.324Z,1007.6
2016-07-14T04:43:39.301Z,1007.63
2016-07-14T04:44:39.277Z,1007.65
2016-07-14T04:45:39.255Z,1007.67
2016-07-14T04:46:39.233Z,1007.64
2016-07-14T04:47:39.208Z,1007.67
2016-07-14T04:48:39.186Z,1007.7
2016-07-14T04:49:39.166Z,1007.72
2016-07-14T04:50:39.140Z,1007.7
2016-07-14T04:51:39.117Z,1007.7
2016-07-14T04:52:39.095Z,1007.74
2016-07-14T04:53:39.071Z,1007.74
2016-07-14T04:54:39.048Z,1007.74
2016-07-14T04:55:39.026Z,1007.73
2016-07-14T04:56:39.003Z,1007.74
2016-07-14T04:57:38.980Z,1007.75
2016-07-14T04:58:39.112Z,1007.76
2016-07-14T04:59:38.934Z,1007.77
2016-07-14T05:00:38.913Z,1007.83
2016-07-14T05:01:38.891Z,1007.84
2016-07-14T05:02:38.867Z,1007.81
2016-07-14T05:03:38.844Z,1007.82
2016-07-14T05:04:38.822Z,1007.82
2016-07-14T05:05:38.799Z,1007.83
2016-07-14T05:06:38.777Z,1007.87
2016-07-14T05:07:38.756Z,1007.81
2016-07-14T05:08:38.734Z,1007.85
2016-07-14T05:09:38.711Z,1007.83
2016-07-14T05:10:38.692Z,1007.89
2016-07-14T05:11:38.673Z,1007.8
2016-07-14T05:12:38.646Z,1007.85
2016-07-14T05:13:38.624Z,1007.84
2016-07-14T05:14:38.603Z,1007.83
2016-07-14T05:15:38.582Z,1007.87
2016-07-14T05:16:38.559Z,1007.85
2016-07-14T05:17:38.537Z,1007.83
2016-07-14T05:18:38.517Z,1007.84
2016-07-14T05:19:38.495Z,1007.83
2016-07-14T05:20:38.472Z,1007.83
2016-07-14T05:21:38.452Z,1007.89
2016-07-14T05:22:38.431Z,1007.85
2016-07-14T05:23:38.419Z,1007.85
2016-07-14T05:24:38.388Z,1007.85
2016-07-14T05:25:38.367Z,1007.85
2016-07-14T05:26:38.345Z,1007.86
2016-07-14T05:27:38.324Z,1007.87
2016-07-14T05:28:38.304Z,1007.87
2016-07-14T05:29:38.283Z,1007.82
2016-07-14T05:30:38.261Z,1007.83
2016-07-14T05:31:38.239Z,1007.85
2016-07-14T05:32:38.220Z,1007.84
2016-07-14T05:33:38.199Z,1007.86
2016-07-14T05:34:38.177Z,1007.84
2016-07-14T05:35:38.156Z,1007.83
2016-07-14T05:36:38.137Z,1007.86
2016-07-14T05:37:38.116Z,1007.88
2016-07-14T05:38:38.094Z,1007.92
2016-07-14T05:39:38.074Z,1007.91
2016-07-14T05:40:38.055Z,1007.87
2016-07-14T05:41:38.033Z,1007.88
2016-07-14T05:42:38.013Z,1007.9
2016-07-14T05:43:37.993Z,1007.92
2016-07-14T05:44:37.973Z,1007.92
2016-07-14T05:45:37.951Z,1007.9
2016-07-14T05:46:37.931Z,1007.92
2016-07-14T05:47:37.912Z,1007.88
2016-07-14T05:48:37.891Z,1007.88
2016-07-14T05:49:37.872Z,1007.89
2016-07-14T05:50:37.851Z,1007.93
2016-07-14T05:51:37.831Z,1007.92
2016-07-14T05:52:37.811Z,1007.96
2016-07-14T05:53:37.791Z,1007.96
2016-07-14T05:54:37.773Z,1007.86
2016-07-14T05:55:37.757Z,1007.89
2016-07-14T05:56:37.733Z,1007.86
2016-07-14T05:57:37.715Z,1007.89
2016-07-14T05:58:37.694Z,1007.9
2016-07-14T05:59:37.677Z,1007.83
2016-07-14T06:00:37.656Z,1007.88
2016-07-14T06:01:37.636Z,1007.85
2016-07-14T06:02:37.619Z,1007.85
2016-07-14T06:03:37.598Z,1007.84
2016-07-14T06:04:37.581Z,1007.82
2016-07-14T06:05:37.563Z,1007.87
2016-07-14T06:06:37.543Z,1007.84
2016-07-14T06:07:37.526Z,1007.91
2016-07-14T06:08:37.508Z,1007.85
2016-07-14T06:09:37.490Z,1007.9
2016-07-14T06:10:37.471Z,1007.92
2016-07-14T06:11:37.451Z,1007.9
2016-07-14T06:12:37.434Z,1007.88
2016-07-14T06:13:37.417Z,1007.91
2016-07-14T06:14:37.397Z,1007.9
2016-07-14T06:15:37.379Z,1007.89
2016-07-14T06:16:37.361Z,1007.89
2016-07-14T06:17:37.343Z,1007.89
2016-07-14T06:18:37.325Z,1007.92
2016-07-14T06:19:37.307Z,1007.89
2016-07-14T06:20:37.289Z,1007.89
2016-07-14T06:21:37.272Z,1007.89
2016-07-14T06:22:37.253Z,1007.85
2016-07-14T06:23:37.236Z,1007.83
2016-07-14T06:25:37.199Z,1007.83
2016-07-14T06:26:37.184Z,1007.83
2016-07-14T06:27:37.165Z,1007.76
2016-07-14T06:28:37.148Z,1007.8
2016-07-14T06:29:37.132Z,1007.84
2016-07-14T06:30:37.116Z,1007.88
2016-07-14T06:31:37.099Z,1007.8
2016-07-14T06:32:37.081Z,1007.8
2016-07-14T06:33:37.063Z,1007.82
2016-07-14T06:34:37.048Z,1007.8
2016-07-14T06:35:37.032Z,1007.83
2016-07-14T06:36:37.015Z,1007.87
2016-07-14T06:37:36.998Z,1007.86
2016-07-14T06:38:36.982Z,1007.84
2016-07-14T06:39:36.968Z,1007.88
2016-07-14T06:40:36.950Z,1007.87
2016-07-14T06:41:36.935Z,1007.91
2016-07-14T06:42:36.919Z,1007.87
2016-07-14T06:43:36.901Z,1007.95
2016-07-14T06:44:36.886Z,1007.94
2016-07-14T06:45:36.869Z,1007.9
2016-07-14T06:46:36.854Z,1007.94
2016-07-14T06:47:36.835Z,1007.97
2016-07-14T06:48:36.821Z,1007.98
2016-07-14T06:49:36.804Z,1007.91
2016-07-14T06:50:36.788Z,1007.96
2016-07-14T06:51:36.770Z,1007.96
2016-07-14T06:52:36.754Z,1008.04
2016-07-14T06:53:36.738Z,1008.08
2016-07-14T06:54:36.721Z,1007.95
2016-07-14T06:55:36.704Z,1007.95
2016-07-14T06:56:36.688Z,1007.94
2016-07-14T06:57:36.672Z,1008.03
2016-07-14T06:58:36.655Z,1008.03
2016-07-14T06:59:36.639Z,1008.05
2016-07-14T07:00:36.624Z,1008.05
2016-07-14T07:01:36.608Z,1008.14
2016-07-14T07:02:36.593Z,1008.07
2016-07-14T07:03:36.577Z,1008.15
2016-07-14T07:04:36.560Z,1008.11
2016-07-14T07:05:36.545Z,1008.03
2016-07-14T07:06:36.529Z,1008.04
2016-07-14T07:07:36.513Z,1008.08
2016-07-14T07:08:36.497Z,1007.98
2016-07-14T07:09:36.482Z,1008.12
2016-07-14T07:10:36.467Z,1008.01
2016-07-14T07:11:36.451Z,1008.01
2016-07-14T07:12:36.436Z,1008.05
2016-07-14T07:13:36.420Z,1008.01
2016-07-14T07:14:36.407Z,1008.04
2016-07-14T07:15:36.393Z,1008.04
2016-07-14T07:16:36.379Z,1008.11
2016-07-14T07:17:36.363Z,1008.08
2016-07-14T07:18:36.349Z,1008.08
2016-07-14T07:19:36.338Z,1008.08
2016-07-14T07:20:36.321Z,1008.11
2016-07-14T07:21:36.308Z,1008.09
2016-07-14T07:22:36.294Z,1008.07
2016-07-14T07:23:36.279Z,1008.21
2016-07-14T07:24:36.265Z,1008.08
2016-07-14T07:25:36.252Z,1008.13
2016-07-14T07:26:36.237Z,1008.15
2016-07-14T07:27:36.224Z,1008.13
2016-07-14T07:28:36.210Z,1008.14
2016-07-14T07:29:36.195Z,1008.15
2016-07-14T07:30:36.180Z,1008.16
2016-07-14T07:31:36.165Z,1008.12
2016-07-14T07:32:36.152Z,1008.18
2016-07-14T07:33:36.138Z,1008.1
2016-07-14T07:34:36.121Z,1008.14
2016-07-14T07:35:36.107Z,1008.12
2016-07-14T07:36:36.092Z,1008.2
2016-07-14T07:37:36.081Z,1008.08
2016-07-14T07:38:36.064Z,1008.14
2016-07-14T07:39:36.050Z,1008.09
2016-07-14T07:40:36.034Z,1008.09
2016-07-14T07:41:36.020Z,1008.11
2016-07-14T07:42:36.003Z,1008.13
2016-07-14T07:43:35.989Z,1008.15
2016-07-14T07:44:35.975Z,1008.14
2016-07-14T07:45:35.958Z,1008.14
2016-07-14T07:46:35.943Z,1008.14
2016-07-14T07:47:35.929Z,1008.16
2016-07-14T07:48:35.911Z,1008.12
2016-07-14T07:49:35.895Z,1008.12
2016-07-14T07:50:35.882Z,1008.14
2016-07-14T07:51:35.865Z,1008.15
2016-07-14T07:52:35.851Z,1008.18
2016-07-14T07:53:35.835Z,1008.17
2016-07-14T07:54:35.820Z,1008.16
2016-07-14T07:55:35.807Z,1008.15
2016-07-14T07:56:35.793Z,1008.18
2016-07-14T07:57:35.779Z,1008.06
2016-07-14T07:58:35.766Z,1008.07
2016-07-14T07:59:35.752Z,1008.06
2016-07-14T08:00:35.738Z,1008.03
2016-07-14T08:01:35.727Z,1008.02
2016-07-14T08:02:35.715Z,1007.99
2016-07-14T08:03:35.702Z,1008.03
2016-07-14T08:04:35.688Z,1008.04
2016-07-14T08:05:35.677Z,1008.04
2016-07-14T08:06:35.663Z,1008.02
2016-07-14T08:07:35.756Z,1008.05
2016-07-14T08:08:35.638Z,1008.03
2016-07-14T08:09:35.625Z,1008.12
2016-07-14T08:10:35.611Z,1008.05
2016-07-14T08:11:35.599Z,1008.1
2016-07-14T08:12:35.585Z,1007.99
2016-07-14T08:13:35.570Z,1008.02
2016-07-14T08:14:35.557Z,1008
2016-07-14T08:15:35.541Z,1007.99
2016-07-14T08:16:35.528Z,1008.04
2016-07-14T08:17:35.514Z,1008
2016-07-14T08:18:35.500Z,1008.04
2016-07-14T08:19:35.486Z,1008
2016-07-14T08:20:35.473Z,1007.98
2016-07-14T08:21:35.460Z,1007.94
2016-07-14T08:22:35.445Z,1007.97
2016-07-14T08:23:35.434Z,1007.98
2016-07-14T08:24:35.420Z,1007.96
2016-07-14T08:25:35.407Z,1008.06
2016-07-14T08:26:35.394Z,1008.01
2016-07-14T08:27:35.379Z,1008
2016-07-14T08:28:35.367Z,1007.97
2016-07-14T08:29:35.352Z,1007.94
2016-07-14T08:30:35.338Z,1007.97
2016-07-14T08:31:35.323Z,1007.9
2016-07-14T08:32:35.311Z,1008
2016-07-14T08:33:35.296Z,1007.93
2016-07-14T08:34:35.283Z,1007.86
2016-07-14T08:35:35.270Z,1007.99
2016-07-14T08:36:35.257Z,1007.98
2016-07-14T08:37:35.294Z,1007.94
2016-07-14T08:38:35.233Z,1008.01
2016-07-14T08:39:35.221Z,1007.95
2016-07-14T08:40:35.209Z,1007.98
2016-07-14T08:41:35.195Z,1007.91
2016-07-14T08:42:35.184Z,1007.89
2016-07-14T08:43:35.173Z,1008.13
2016-07-14T08:44:35.160Z,1007.89
2016-07-14T08:45:35.150Z,1007.96
2016-07-14T08:46:35.136Z,1007.97
2016-07-14T08:47:35.124Z,1007.9
2016-07-14T08:48:35.111Z,1007.98
2016-07-14T08:49:35.098Z,1007.99
2016-07-14T08:50:35.084Z,1007.97
2016-07-14T08:51:35.071Z,1007.97
2016-07-14T08:52:35.055Z,1008.02
2016-07-14T08:53:35.043Z,1008.02
2016-07-14T08:54:35.027Z,1008.02
2016-07-14T08:55:35.011Z,1008.05
2016-07-14T08:56:34.998Z,1007.99
2016-07-14T08:57:34.985Z,1008.01
2016-07-14T08:58:34.969Z,1008.01
2016-07-14T08:59:34.956Z,1007.94
2016-07-14T09:00:34.940Z,1007.99
2016-07-14T09:01:34.929Z,1008.02
2016-07-14T09:02:34.915Z,1007.86
2016-07-14T09:03:34.901Z,1007.93
2016-07-14T09:04:34.889Z,1007.88
2016-07-14T09:05:34.875Z,1008.01
2016-07-14T09:06:34.862Z,1007.91
2016-07-14T09:07:34.849Z,1007.99
2016-07-14T09:08:34.836Z,1007.96
2016-07-14T09:09:34.822Z,1007.86
2016-07-14T09:10:34.808Z,1008.01
2016-07-14T09:11:34.796Z,1008.1
2016-07-14T09:12:34.782Z,1007.97
2016-07-14T09:13:34.767Z,1007.99
2016-07-14T09:14:34.753Z,1008
2016-07-14T09:15:34.739Z,1007.96
2016-07-14T09:16:34.727Z,1007.91
2016-07-14T09:17:34.712Z,1007.93
2016-07-14T09:18:34.700Z,1008
2016-07-14T09:19:34.687Z,1008.01
2016-07-14T09:20:34.675Z,1007.93
2016-07-14T09:21:34.663Z,1007.92
2016-07-14T09:22:34.651Z,1007.98
2016-07-14T09:23:34.641Z,1007.88
2016-07-14T09:24:34.629Z,1007.87
2016-07-14T09:25:34.617Z,1007.87
2016-07-14T09:26:34.607Z,1007.94
2016-07-14T09:27:34.599Z,1007.95
2016-07-14T09:28:34.588Z,1007.85
2016-07-14T09:29:34.577Z,1007.84
2016-07-14T09:30:34.569Z,1007.88
2016-07-14T09:31:34.559Z,1007.81
2016-07-14T09:32:34.549Z,1007.94
2016-07-14T09:33:34.540Z,1007.94
2016-07-14T09:34:34.531Z,1007.92
2016-07-14T09:35:34.520Z,1007.88
2016-07-14T09:36:34.511Z,1007.94
2016-07-14T09:37:34.501Z,1007.94
2016-07-14T09:38:34.490Z,1007.89
2016-07-14T09:39:34.479Z,1007.96
2016-07-14T09:40:34.470Z,1007.98
2016-07-14T09:41:34.464Z,1007.9
2016-07-14T09:42:34.448Z,1007.89
2016-07-14T09:43:34.438Z,1007.95
2016-07-14T09:44:34.425Z,1008
2016-07-14T09:45:34.414Z,1007.92
2016-07-14T09:46:34.403Z,1007.95
2016-07-14T09:47:34.391Z,1008
2016-07-14T09:48:34.379Z,1007.88
2016-07-14T09:49:34.368Z,1007.9
2016-07-14T09:50:34.362Z,1008.05
2016-07-14T09:51:34.341Z,1008.03
2016-07-14T09:52:34.328Z,1007.98
2016-07-14T09:53:34.314Z,1008.04
2016-07-14T09:54:34.300Z,1008.02
2016-07-14T09:55:34.286Z,1008
2016-07-14T09:56:34.273Z,1008.09
2016-07-14T09:57:34.258Z,1008.06
2016-07-14T09:58:34.266Z,1007.98
2016-07-14T09:59:34.244Z,1008.13
2016-07-14T10:00:34.215Z,1008.11
2016-07-14T10:01:34.199Z,1008.12
2016-07-14T10:02:34.184Z,1008.11
2016-07-14T10:03:34.168Z,1008.11
2016-07-14T10:04:34.153Z,1008.06
2016-07-14T10:05:34.177Z,1008.09
2016-07-14T10:06:34.121Z,1008.15
2016-07-14T10:07:34.106Z,1008.15
2016-07-14T10:08:34.088Z,1008.11
2016-07-14T10:09:34.074Z,1008.08
2016-07-14T10:10:34.059Z,1008.11
2016-07-14T10:11:34.049Z,1008.13
2016-07-14T10:12:34.026Z,1008.09
2016-07-14T10:13:34.011Z,1008.08
2016-07-14T10:14:33.997Z,1008.08
2016-07-14T10:15:33.981Z,1008.13
2016-07-14T10:16:33.963Z,1008.09
2016-07-14T10:17:33.949Z,1008.06
2016-07-14T10:18:33.936Z,1008.05
2016-07-14T10:19:33.919Z,1008.07
2016-07-14T10:20:33.905Z,1008.03
2016-07-14T10:21:33.892Z,1008.09
2016-07-14T10:22:33.877Z,1008.01
2016-07-14T10:23:33.867Z,1007.97
2016-07-14T10:24:33.847Z,1008.03
2016-07-14T10:25:33.845Z,1007.98
2016-07-14T10:26:33.821Z,1008.01
2016-07-14T10:27:33.806Z,1008.05
2016-07-14T10:28:33.795Z,1008.1
2016-07-14T10:29:33.780Z,1008.05
2016-07-14T10:30:33.767Z,1008.17
2016-07-14T10:31:33.753Z,1008.05
2016-07-14T10:32:33.741Z,1008.1
2016-07-14T10:33:33.727Z,1008.16
2016-07-14T10:34:33.712Z,1008.15
2016-07-14T10:35:33.698Z,1008.15
2016-07-14T10:36:33.683Z,1008.1
2016-07-14T10:37:33.671Z,1008.15
2016-07-14T10:38:33.656Z,1008.08
2016-07-14T10:39:33.643Z,1008.14
2016-07-14T10:40:33.629Z,1008.16
2016-07-14T10:41:33.616Z,1008.08
2016-07-14T10:42:33.601Z,1008.11
2016-07-14T10:43:33.590Z,1008.13
2016-07-14T10:44:33.576Z,1008.15
2016-07-14T10:45:33.561Z,1008.17
2016-07-14T10:46:33.600Z,1008.11
2016-07-14T10:47:33.536Z,1008.17
2016-07-14T10:48:33.521Z,1008.17
2016-07-14T10:49:33.507Z,1008.19
2016-07-14T10:50:33.496Z,1008.14
2016-07-14T10:51:33.486Z,1008.24
2016-07-14T10:52:33.467Z,1008.26
2016-07-14T10:53:33.454Z,1008.23
2016-07-14T10:54:33.439Z,1008.26
2016-07-14T10:55:33.426Z,1008.2
2016-07-14T10:56:33.410Z,1008.25
2016-07-14T10:57:33.397Z,1008.27
2016-07-14T10:58:33.382Z,1008.37
2016-07-14T10:59:33.367Z,1008.3
2016-07-14T11:00:33.354Z,1008.37
2016-07-14T11:01:33.339Z,1008.31
2016-07-14T11:02:33.323Z,1008.33
2016-07-14T11:03:33.309Z,1008.39
2016-07-14T11:04:33.293Z,1008.4
2016-07-14T11:05:33.278Z,1008.38
2016-07-14T11:06:33.264Z,1008.37
2016-07-14T11:07:33.247Z,1008.33
2016-07-14T11:08:33.232Z,1008.35
2016-07-14T11:09:33.217Z,1008.39
2016-07-14T11:10:33.201Z,1008.41
2016-07-14T11:11:33.186Z,1008.4
2016-07-14T11:12:33.172Z,1008.37
2016-07-14T11:13:33.155Z,1008.45
2016-07-14T11:14:33.139Z,1008.41
2016-07-14T11:15:33.125Z,1008.42
2016-07-14T11:16:33.109Z,1008.43
2016-07-14T11:17:33.095Z,1008.44
2016-07-14T11:18:33.078Z,1008.43
2016-07-14T11:19:33.064Z,1008.38
2016-07-14T11:20:33.049Z,1008.42
2016-07-14T11:21:33.033Z,1008.37
2016-07-14T11:22:33.019Z,1008.37
2016-07-14T11:23:33.004Z,1008.37
2016-07-14T11:24:32.990Z,1008.37
2016-07-14T11:25:32.977Z,1008.32
2016-07-14T11:26:32.961Z,1008.35
2016-07-14T11:27:32.948Z,1008.33
2016-07-14T11:28:32.935Z,1008.33
2016-07-14T11:29:32.921Z,1008.4
2016-07-14T11:30:32.912Z,1008.4
2016-07-14T11:31:32.896Z,1008.43
2016-07-14T11:32:32.881Z,1008.45
2016-07-14T11:33:32.869Z,1008.47
2016-07-14T11:34:32.856Z,1008.44
2016-07-14T11:35:32.842Z,1008.58
2016-07-14T11:36:32.829Z,1008.62
2016-07-14T11:37:32.815Z,1008.64
2016-07-14T11:38:32.799Z,1008.71
2016-07-14T11:39:32.785Z,1008.65
2016-07-14T11:40:32.770Z,1008.71
2016-07-14T11:41:32.791Z,1008.66
2016-07-14T11:42:32.740Z,1008.68
2016-07-14T11:43:32.724Z,1008.63
2016-07-14T11:44:32.735Z,1008.66
2016-07-14T11:45:32.692Z,1008.68
2016-07-14T11:46:32.678Z,1008.69
2016-07-14T11:47:32.660Z,1008.74
2016-07-14T11:48:32.644Z,1008.67
2016-07-14T11:49:32.628Z,1008.72
2016-07-14T11:50:32.612Z,1008.65
2016-07-14T11:51:32.596Z,1008.66
2016-07-14T11:52:32.579Z,1008.7
2016-07-14T11:53:32.563Z,1008.69
2016-07-14T11:54:32.546Z,1008.66
2016-07-14T11:55:32.530Z,1008.73
2016-07-14T11:56:32.518Z,1008.75
2016-07-14T11:57:32.498Z,1008.72
2016-07-14T11:58:32.483Z,1008.69
2016-07-14T11:59:32.464Z,1008.75
2016-07-14T12:00:32.450Z,1008.71
2016-07-14T12:01:32.434Z,1008.76
2016-07-14T12:02:32.418Z,1008.78
2016-07-14T12:03:32.402Z,1008.74
2016-07-14T12:04:32.384Z,1008.71
2016-07-14T12:05:32.368Z,1008.73
2016-07-14T12:06:32.353Z,1008.76
2016-07-14T12:08:32.322Z,1008.8
2016-07-14T12:09:32.312Z,1008.78
2016-07-14T12:10:32.289Z,1008.79